Time;durP1;ratioP1;P1;durP2;ratioP2;P2;SDS_P1;SDS_P2;PMS_P1;PMS_P2;Temp;Humidity;BMP_temperature;BMP_pressure;BME280_temperature;BME280_humidity;BME280_pressure;Samples;Min_cycle;Max_cycle;Signal;HPM_P1;HPM_P2
2023/09/15 00:01:30;;;;;;;;;;;;;;;21.79;28.59;98024.19;5040811;28;1898;-77
2023/09/15 00:03:55;;;;;;;;;;;;;;;21.81;28.72;98026.56;5057909;28;1133;-78
2023/09/15 00:06:21;;;;;;;;;;;;;;;21.69;28.81;98021.63;5042071;28;849;-77
2023/09/15 00:08:47;;;;;;;;;;;;;;;21.51;29.26;98027.78;5041851;28;1146;-77
2023/09/15 00:11:15;;;;;;;;;;;;;;;21.84;28.65;98025.69;5057999;28;1424;-77
2023/09/15 00:13:41;;;;;;;;;;;;;;;21.51;29.21;98027.78;5060897;28;1145;-78
2023/09/15 00:16:07;;;;;;;;;;;;;;;21.59;28.89;98029.16;5044234;28;1027;-78
2023/09/15 00:18:33;;;;;;;;;;;;;;;21.81;28.57;98024.53;5061151;28;931;-77
2023/09/15 00:20:59;;;;;;;;;;;;;;;21.67;29.04;98027.75;5061516;28;1981;-77
2023/09/15 00:23:24;;;;;;;;;;;;;;;21.85;28.74;98025.22;5044045;28;1246;-77
2023/09/15 00:25:54;;;;;;;;;;;;;;;21.64;28.88;98014.47;5061858;28;886;-77
2023/09/15 00:28:19;;;;;;;;;;;;;;;21.80;28.64;98022.94;5062094;28;950;-77
2023/09/15 00:30:45;;;;;;;;;;;;;;;21.55;29.14;98034.94;5039159;28;1697;-77
2023/09/15 00:33:11;;;;;;;;;;;;;;;21.40;29.47;98028.06;5023006;28;1386;-77
2023/09/15 00:35:36;;;;;;;;;;;;;;;21.64;28.89;98037.13;5023324;28;1034;-77
2023/09/15 00:38:03;;;;;;;;;;;;;;;21.40;29.49;98030.88;5022814;28;1309;-78
2023/09/15 00:40:28;;;;;;;;;;;;;;;21.65;29.14;98032.25;5022334;28;1983;-77
2023/09/15 00:42:54;;;;;;;;;;;;;;;21.62;29.08;98033.94;5006654;28;1201;-77
2023/09/15 00:45:19;;;;;;;;;;;;;;;21.72;28.88;98027.22;5039654;28;1027;-78
2023/09/15 00:47:49;;;;;;;;;;;;;;;21.49;28.98;98030.22;5039481;28;950;-76
2023/09/15 00:50:15;;;;;;;;;;;;;;;21.47;29.26;98027.06;5006652;28;1597;-77
2023/09/15 00:52:41;;;;;;;;;;;;;;;21.61;29.13;98026.69;5023045;28;989;-77
2023/09/15 00:55:08;;;;;;;;;;;;;;;21.66;28.79;98029.00;5022528;28;1344;-77
2023/09/15 00:57:34;;;;;;;;;;;;;;;21.73;28.97;98028.78;5039510;28;1277;-77
2023/09/15 01:00:00;;;;;;;;;;;;;;;21.56;29.17;98027.25;5018205;28;1496;-77
2023/09/15 01:02:25;;;;;;;;;;;;;;;21.63;28.91;98029.88;5065010;28;1969;-77
2023/09/15 01:04:51;;;;;;;;;;;;;;;21.82;28.50;98020.47;5040713;28;1170;-77
2023/09/15 01:07:16;;;;;;;;;;;;;;;21.49;29.03;98027.41;5040561;28;1219;-77
2023/09/15 01:09:42;;;;;;;;;;;;;;;21.72;29.08;98027.22;5056444;28;1372;-77
2023/09/15 01:12:08;;;;;;;;;;;;;;;21.55;29.30;98022.78;5056939;28;1168;-77
2023/09/15 01:14:35;;;;;;;;;;;;;;;21.71;28.73;98019.97;5040791;28;1236;-77
2023/09/15 01:17:04;;;;;;;;;;;;;;;21.68;28.94;98015.19;5057472;28;938;-78
2023/09/15 01:19:53;;;;;;;;;;;;;;;21.50;29.37;98020.50;5040486;28;1158;-77
2023/09/15 01:22:39;;;;;;;;;;;;;;;21.68;29.10;98020.84;5056814;28;1979;-77
2023/09/15 01:25:24;;;;;;;;;;;;;;;21.46;29.12;98014.16;5056474;28;1070;-77
2023/09/15 01:28:13;;;;;;;;;;;;;;;21.76;28.75;98022.25;5057734;28;969;-77
2023/09/15 01:30:38;;;;;;;;;;;;;;;21.65;28.92;98024.56;5036256;28;1309;-77
2023/09/15 01:33:05;;;;;;;;;;;;;;;21.73;28.62;98020.31;5036897;28;981;-77
2023/09/15 01:35:32;;;;;;;;;;;;;;;21.62;29.07;98021.84;5037066;28;934;-77
2023/09/15 01:37:59;;;;;;;;;;;;;;;21.59;28.94;98021.47;5053163;28;1132;-77
2023/09/15 01:40:25;;;;;;;;;;;;;;;21.70;29.14;98018.34;5056231;28;2005;-77
2023/09/15 01:42:52;;;;;;;;;;;;;;;21.62;28.97;98019.78;5056653;28;1111;-77
2023/09/15 01:45:18;;;;;;;;;;;;;;;21.50;29.21;98021.31;5039947;28;1546;-77
2023/09/15 01:47:43;;;;;;;;;;;;;;;21.94;28.59;98015.28;5035318;28;873;-77
2023/09/15 01:50:09;;;;;;;;;;;;;;;21.76;29.09;98016.59;5001714;28;1467;-77
2023/09/15 01:52:35;;;;;;;;;;;;;;;21.77;28.82;98012.50;5035326;28;954;-77
2023/09/15 01:55:00;;;;;;;;;;;;;;;21.77;28.73;98012.50;5018698;28;1158;-77
2023/09/15 01:57:26;;;;;;;;;;;;;;;21.89;28.44;98018.66;5018622;28;1147;-78
2023/09/15 01:59:51;;;;;;;;;;;;;;;21.66;28.83;98020.50;5017898;28;1520;-78
2023/09/15 02:02:17;;;;;;;;;;;;;;;21.58;28.88;98016.25;5029952;28;1914;-77
2023/09/15 02:04:43;;;;;;;;;;;;;;;21.57;29.10;98026.00;4998899;28;1985;-77
2023/09/15 02:07:08;;;;;;;;;;;;;;;21.45;29.17;98029.53;5015156;28;962;-77
2023/09/15 02:09:34;;;;;;;;;;;;;;;21.59;29.31;98034.81;5014633;28;1027;-76
2023/09/15 02:11:59;;;;;;;;;;;;;;;21.59;29.11;98029.16;4998439;28;1519;-77
2023/09/15 02:14:25;;;;;;;;;;;;;;;21.70;29.22;98026.84;5001752;28;1290;-77
2023/09/15 02:16:51;;;;;;;;;;;;;;;21.71;29.06;98019.13;5018004;28;1188;-77
2023/09/15 02:19:18;;;;;;;;;;;;;;;21.86;28.81;98026.00;5047490;28;1257;-76
2023/09/15 02:21:44;;;;;;;;;;;;;;;21.78;28.90;98014.09;5000747;28;1914;-77
2023/09/15 02:24:09;;;;;;;;;;;;;;;21.60;29.22;98019.41;5034056;28;1447;-77
2023/09/15 02:26:35;;;;;;;;;;;;;;;21.42;29.31;98013.44;5001722;28;1198;-77
2023/09/15 02:29:01;;;;;;;;;;;;;;;21.27;29.48;98022.25;5034768;28;924;-77
2023/09/15 02:31:27;;;;;;;;;;;;;;;21.44;29.29;98016.63;4984766;28;1495;-78
2023/09/15 02:33:52;;;;;;;;;;;;;;;21.36;29.74;98015.22;5001723;28;1495;-77
2023/09/15 02:36:18;;;;;;;;;;;;;;;21.66;29.06;98017.66;5017936;28;1151;-77
2023/09/15 02:38:44;;;;;;;;;;;;;;;21.49;29.43;98019.72;5034559;28;1135;-78
2023/09/15 02:41:10;;;;;;;;;;;;;;;21.63;29.21;98017.75;5017974;28;1910;-77
2023/09/15 02:43:35;;;;;;;;;;;;;;;21.64;28.89;98022.16;5029453;28;1579;-77
2023/09/15 02:46:02;;;;;;;;;;;;;;;21.75;28.73;98019.84;4998159;28;1232;-77
2023/09/15 02:48:27;;;;;;;;;;;;;;;21.78;28.80;98018.97;4998065;28;1091;-76
2023/09/15 02:50:53;;;;;;;;;;;;;;;21.70;28.89;98018.34;4998051;28;1364;-78
2023/09/15 02:53:18;;;;;;;;;;;;;;;21.45;29.32;98024.69;5040032;28;1326;-77
2023/09/15 02:55:54;;;;;;;;;;;;;;;21.71;28.86;98019.13;5055347;28;1261;-77
2023/09/15 02:58:19;;;;;;;;;;;;;;;21.56;29.23;98025.19;5054976;28;1554;-77
2023/09/15 03:00:47;;;;;;;;;;;;;;;21.60;29.00;98019.41;5054877;28;1902;-77
2023/09/15 03:03:14;;;;;;;;;;;;;;;21.72;29.03;98017.91;5035067;28;1302;-77
2023/09/15 03:05:39;;;;;;;;;;;;;;;21.65;28.99;98021.72;5034918;28;1428;-77
2023/09/15 03:08:05;;;;;;;;;;;;;;;21.67;28.94;98024.91;5039023;28;1391;-77
2023/09/15 03:10:33;;;;;;;;;;;;;;;21.88;28.66;98025.59;5054968;28;867;-77
2023/09/15 03:12:59;;;;;;;;;;;;;;;21.63;28.96;98029.88;5054535;28;1166;-78
2023/09/15 03:15:25;;;;;;;;;;;;;;;21.54;29.15;98021.22;5038126;28;1174;-77
2023/09/15 03:17:51;;;;;;;;;;;;;;;21.69;28.74;98030.91;5054103;28;1406;-77
2023/09/15 03:20:18;;;;;;;;;;;;;;;21.59;28.84;98029.16;5038170;28;1914;-77
2023/09/15 03:22:44;;;;;;;;;;;;;;;21.62;28.99;98039.63;5054255;28;1250;-77
2023/09/15 03:25:09;;;;;;;;;;;;;;;21.61;28.91;98040.84;5016741;28;1273;-76
2023/09/15 03:27:36;;;;;;;;;;;;;;;21.47;29.20;98038.38;4992187;28;1510;-78
2023/09/15 03:30:04;;;;;;;;;;;;;;;21.49;29.18;98035.91;4958429;28;1183;-77
2023/09/15 03:32:29;;;;;;;;;;;;;;;21.43;29.38;98043.34;4943197;28;1106;-78
2023/09/15 03:34:55;;;;;;;;;;;;;;;21.55;29.21;98042.63;4958457;28;1120;-77
2023/09/15 03:37:20;;;;;;;;;;;;;;;21.68;28.77;98042.69;4964301;28;1338;-78
2023/09/15 03:39:46;;;;;;;;;;;;;;;21.56;29.15;98042.19;4978158;28;1642;-77
2023/09/15 03:42:11;;;;;;;;;;;;;;;21.52;28.89;98049.19;4993952;28;1989;-77
2023/09/15 03:44:37;;;;;;;;;;;;;;;21.60;28.88;98050.56;4993770;28;838;-77
2023/09/15 03:47:03;;;;;;;;;;;;;;;21.74;28.61;98047.38;4977135;28;1625;-77
2023/09/15 03:49:28;;;;;;;;;;;;;;;21.75;28.73;98053.84;4977280;28;1611;-77
2023/09/15 03:51:54;;;;;;;;;;;;;;;21.53;29.11;98059.25;4993364;28;1600;-77
2023/09/15 03:54:19;;;;;;;;;;;;;;;21.76;28.84;98061.91;4977825;28;889;-77
2023/09/15 03:56:45;;;;;;;;;;;;;;;21.54;29.18;98066.50;5007205;28;1093;-77
2023/09/15 03:59:10;;;;;;;;;;;;;;;21.62;29.01;98067.94;5033332;28;1046;-76
2023/09/15 04:01:38;;;;;;;;;;;;;;;21.82;28.39;98065.78;4984316;28;1900;-77
2023/09/15 04:04:04;;;;;;;;;;;;;;;21.74;28.93;98075.69;5000522;28;1138;-77
2023/09/15 04:06:31;;;;;;;;;;;;;;;21.91;28.66;98089.84;5002536;28;1389;-77
2023/09/15 04:08:57;;;;;;;;;;;;;;;21.65;28.90;98086.84;5054118;28;1338;-77
2023/09/15 04:11:22;;;;;;;;;;;;;;;22.00;28.40;98087.97;5037411;28;1039;-77
2023/09/15 04:13:48;;;;;;;;;;;;;;;21.66;29.03;98093.31;5053845;28;1035;-77
2023/09/15 04:16:13;;;;;;;;;;;;;;;21.64;29.23;98090.91;5037286;28;1071;-77
2023/09/15 04:18:40;;;;;;;;;;;;;;;21.81;28.65;98089.69;5035855;28;1103;-77
2023/09/15 04:21:06;;;;;;;;;;;;;;;21.82;28.86;98093.31;5035928;28;1914;-77
2023/09/15 04:23:32;;;;;;;;;;;;;;;21.76;28.89;98095.06;5032599;28;1271;-77
2023/09/15 04:26:01;;;;;;;;;;;;;;;21.73;28.93;98108.09;5016012;28;1190;-77
2023/09/15 04:28:27;;;;;;;;;;;;;;;21.87;28.78;98101.28;5015871;28;1238;-77
2023/09/15 04:30:54;;;;;;;;;;;;;;;21.64;29.00;98110.75;5016463;28;791;-77
2023/09/15 04:33:20;;;;;;;;;;;;;;;21.68;28.92;98100.13;5016775;28;1140;-77
2023/09/15 04:35:46;;;;;;;;;;;;;;;21.44;29.40;98098.72;5019800;28;1123;-77
2023/09/15 04:38:12;;;;;;;;;;;;;;;21.54;29.44;98104.09;5036221;28;1128;-77
2023/09/15 04:40:37;;;;;;;;;;;;;;;21.38;29.51;98106.94;5003181;28;1906;-78
2023/09/15 04:43:04;;;;;;;;;;;;;;;21.85;28.79;98115.88;5003376;28;1168;-77
2023/09/15 04:45:30;;;;;;;;;;;;;;;21.82;28.83;98116.78;5003830;28;1282;-77
2023/09/15 04:47:57;;;;;;;;;;;;;;;21.62;29.45;98118.91;5019265;28;1905;-78
2023/09/15 04:50:23;;;;;;;;;;;;;;;21.32;29.62;98118.00;5023048;28;1075;-77
2023/09/15 04:52:49;;;;;;;;;;;;;;;21.31;29.77;98116.41;5039226;28;1394;-76
2023/09/15 04:55:15;;;;;;;;;;;;;;;21.74;29.10;98120.22;5055940;28;1836;-76
2023/09/15 04:57:41;;;;;;;;;;;;;;;21.42;29.69;98118.19;5039406;28;1494;-76
2023/09/15 05:00:12;;;;;;;;;;;;;;;21.56;29.53;98121.47;5019088;28;1409;-77
2023/09/15 05:02:41;;;;;;;;;;;;;;;21.18;30.22;98132.44;5019094;28;1264;-77
2023/09/15 05:05:07;;;;;;;;;;;;;;;21.68;29.07;98128.44;5035265;28;1050;-77
2023/09/15 05:07:32;;;;;;;;;;;;;;;21.68;28.99;98133.31;5016094;28;978;-77
2023/09/15 05:09:58;;;;;;;;;;;;;;;22.02;28.82;98124.34;4999656;28;1276;-78
2023/09/15 05:12:24;;;;;;;;;;;;;;;21.84;28.79;98130.47;4999663;28;1186;-77
2023/09/15 05:14:49;;;;;;;;;;;;;;;21.67;29.11;98131.72;5000138;28;1023;-77
2023/09/15 05:17:15;;;;;;;;;;;;;;;21.43;29.85;98139.59;5000005;28;1107;-77
2023/09/15 05:19:41;;;;;;;;;;;;;;;21.67;29.38;98135.34;5015942;28;1083;-77
2023/09/15 05:22:07;;;;;;;;;;;;;;;21.53;29.43;98139.31;4999723;28;1983;-77
2023/09/15 05:24:32;;;;;;;;;;;;;;;21.41;29.52;98137.19;4999501;28;1271;-76
2023/09/15 05:26:58;;;;;;;;;;;;;;;21.58;29.48;98141.63;5015943;28;1095;-77
2023/09/15 05:29:24;;;;;;;;;;;;;;;21.58;29.35;98146.50;4999609;28;1171;-77
2023/09/15 05:31:49;;;;;;;;;;;;;;;21.63;29.20;98148.81;4999419;28;962;-77
2023/09/15 05:34:15;;;;;;;;;;;;;;;21.52;29.48;98153.94;5015716;28;1198;-77
2023/09/15 05:36:41;;;;;;;;;;;;;;;21.68;29.41;98159.59;5015877;28;1165;-78
2023/09/15 05:39:07;;;;;;;;;;;;;;;21.58;29.54;98163.50;4993447;28;1115;-77
2023/09/15 05:41:32;;;;;;;;;;;;;;;21.74;29.26;98169.16;5036382;28;1910;-78
2023/09/15 05:43:58;;;;;;;;;;;;;;;21.57;29.41;98164.72;5036763;28;1201;-77
2023/09/15 05:46:23;;;;;;;;;;;;;;;21.54;29.47;98157.91;5036848;28;880;-78
2023/09/15 05:48:49;;;;;;;;;;;;;;;21.45;29.85;98165.41;5019572;28;1264;-78
2023/09/15 05:51:15;;;;;;;;;;;;;;;21.47;29.56;98163.75;5020192;28;1189;-75
2023/09/15 05:53:40;;;;;;;;;;;;;;;21.61;29.54;98167.50;5036421;28;1554;-76
2023/09/15 05:56:06;;;;;;;;;;;;;;;21.58;29.46;98161.44;5036443;28;976;-76
2023/09/15 05:58:31;;;;;;;;;;;;;;;21.45;29.71;98159.75;5036493;28;946;-75
2023/09/15 06:00:57;;;;;;;;;;;;;;;21.44;29.64;98175.13;5035921;28;1983;-76
2023/09/15 06:03:23;;;;;;;;;;;;;;;21.61;29.65;98167.50;5035877;28;915;-75
2023/09/15 06:05:49;;;;;;;;;;;;;;;21.49;29.63;98171.78;5036393;28;892;-75
2023/09/15 06:08:14;;;;;;;;;;;;;;;21.49;29.75;98177.44;5034648;28;1253;-75
2023/09/15 06:10:40;;;;;;;;;;;;;;;21.76;29.34;98180.84;5018082;28;940;-76
2023/09/15 06:13:05;;;;;;;;;;;;;;;21.80;28.88;98175.88;5018159;28;1044;-76
2023/09/15 06:15:31;;;;;;;;;;;;;;;21.76;29.05;98180.84;5018350;28;934;-76
2023/09/15 06:17:57;;;;;;;;;;;;;;;21.53;29.47;98178.16;5018177;28;1270;-76
2023/09/15 06:20:22;;;;;;;;;;;;;;;21.55;29.57;98185.00;5018023;28;1965;-76
2023/09/15 06:22:47;;;;;;;;;;;;;;;21.76;29.42;98192.19;5017802;28;973;-76
2023/09/15 06:25:13;;;;;;;;;;;;;;;21.82;29.10;98196.09;5017882;28;1428;-76
2023/09/15 06:27:39;;;;;;;;;;;;;;;21.71;29.17;98189.88;5017965;28;952;-77
2023/09/15 06:30:05;;;;;;;;;;;;;;;21.42;29.87;98194.59;5017841;28;1267;-76
2023/09/15 06:32:31;;;;;;;;;;;;;;;21.49;29.56;98188.78;5017914;28;1273;-76
2023/09/15 06:34:57;;;;;;;;;;;;;;;21.71;29.44;98194.72;5034270;28;1065;-76
2023/09/15 06:37:22;;;;;;;;;;;;;;;21.77;29.11;98199.44;5018134;28;947;-76
2023/09/15 06:39:48;;;;;;;;;;;;;;;21.80;29.39;98198.53;5003176;28;1059;-76
2023/09/15 06:42:13;;;;;;;;;;;;;;;21.81;29.46;98194.50;5014645;28;1883;-76
2023/09/15 06:44:40;;;;;;;;;;;;;;;21.83;29.12;98197.66;4998530;28;844;-76
2023/09/15 06:47:05;;;;;;;;;;;;;;;21.80;29.50;98195.72;4997919;28;963;-77
2023/09/15 06:49:32;;;;;;;;;;;;;;;21.78;29.41;98194.56;4998014;28;994;-76
2023/09/15 06:51:57;;;;;;;;;;;;;;;21.87;29.36;98203.25;5014109;28;1101;-76
2023/09/15 06:54:23;;;;;;;;;;;;;;;21.90;29.07;98198.72;4998317;28;1143;-76
2023/09/15 06:56:49;;;;;;;;;;;;;;;21.75;29.52;98206.78;5013187;28;1108;-76
2023/09/15 06:59:14;;;;;;;;;;;;;;;21.82;29.16;98213.06;4997597;28;970;-76
2023/09/15 07:01:40;;;;;;;;;;;;;;;21.64;29.59;98209.84;4997795;28;1910;-76
2023/09/15 07:04:06;;;;;;;;;;;;;;;21.69;29.76;98215.00;4997785;28;1127;-77
2023/09/15 07:06:31;;;;;;;;;;;;;;;21.74;29.46;98211.63;4997707;28;943;-76
2023/09/15 07:08:57;;;;;;;;;;;;;;;21.89;29.43;98216.97;4997842;28;1225;-76
2023/09/15 07:11:23;;;;;;;;;;;;;;;21.69;29.52;98220.66;4997836;28;951;-76
2023/09/15 07:13:48;;;;;;;;;;;;;;;21.70;29.41;98216.59;5013876;28;1088;-76
2023/09/15 07:16:14;;;;;;;;;;;;;;;21.56;30.09;98222.59;4997557;28;1275;-76
2023/09/15 07:18:39;;;;;;;;;;;;;;;21.62;29.86;98220.84;4981585;28;1163;-76
2023/09/15 07:21:05;;;;;;;;;;;;;;;21.40;30.14;98225.38;4997413;28;1898;-78
2023/09/15 07:23:30;;;;;;;;;;;;;;;21.80;29.64;98231.72;5013993;28;995;-77
2023/09/15 07:25:55;;;;;;;;;;;;;;;21.70;29.78;98225.06;4997461;28;1277;-76
2023/09/15 07:28:21;;;;;;;;;;;;;;;21.63;29.95;98239.41;5025918;28;1099;-75
2023/09/15 07:30:46;;;;;;;;;;;;;;;21.42;30.44;98228.56;5014689;28;954;-76
2023/09/15 07:33:12;;;;;;;;;;;;;;;21.49;30.42;98234.88;4998817;28;1103;-76
2023/09/15 07:35:37;;;;;;;;;;;;;;;21.54;30.36;98233.56;5015086;28;969;-75
2023/09/15 07:38:03;;;;;;;;;;;;;;;21.56;30.20;98229.06;5015036;28;961;-76
2023/09/15 07:40:29;;;;;;;;;;;;;;;21.68;29.97;98233.22;4998721;28;1906;-77
2023/09/15 07:42:54;;;;;;;;;;;;;;;21.80;29.64;98232.53;4998888;28;941;-76
2023/09/15 07:45:20;;;;;;;;;;;;;;;21.90;29.43;98232.72;5014720;28;949;-77
2023/09/15 07:47:46;;;;;;;;;;;;;;;21.55;30.01;98241.63;5014856;28;981;-76
2023/09/15 07:50:13;;;;;;;;;;;;;;;21.61;30.01;98239.06;4998359;28;987;-77
2023/09/15 07:52:38;;;;;;;;;;;;;;;21.70;29.76;98235.63;4993821;28;1251;-76
2023/09/15 07:55:04;;;;;;;;;;;;;;;21.44;30.30;98237.41;4977859;28;937;-76
2023/09/15 07:57:32;;;;;;;;;;;;;;;21.72;30.01;98236.00;4977665;28;956;-76
2023/09/15 07:59:58;;;;;;;;;;;;;;;21.86;29.88;98227.13;4977562;28;1198;-76
2023/09/15 08:02:26;;;;;;;;;;;;;;;21.79;29.79;98225.28;4977525;28;1906;-76
2023/09/15 08:04:52;;;;;;;;;;;;;;;21.65;29.92;98224.81;4961983;28;955;-76
2023/09/15 08:07:18;;;;;;;;;;;;;;;21.70;30.17;98221.47;4977608;28;1055;-76
2023/09/15 08:09:43;;;;;;;;;;;;;;;21.86;29.90;98218.63;4997086;28;973;-76
2023/09/15 08:12:09;;;;;;;;;;;;;;;21.92;29.81;98230.25;4964223;28;1015;-76
2023/09/15 08:14:34;;;;;;;;;;;;;;;21.95;29.74;98232.19;4978298;28;1067;-76
2023/09/15 08:17:00;;;;;;;;;;;;;;;21.85;29.78;98234.03;4978650;28;1119;-76
2023/09/15 08:19:26;;;;;;;;;;;;;;;21.53;30.38;98229.13;4977819;28;972;-77
2023/09/15 08:21:52;;;;;;;;;;;;;;;21.62;30.41;98229.34;4961614;28;1902;-77
2023/09/15 08:24:20;;;;;;;;;;;;;;;21.46;30.93;98232.13;4988611;28;1424;-77
2023/09/15 08:26:46;;;;;;;;;;;;;;;21.67;30.18;98230.84;4997339;28;945;-76
2023/09/15 08:29:12;;;;;;;;;;;;;;;21.61;30.51;98230.56;4997500;28;982;-76
2023/09/15 08:31:37;;;;;;;;;;;;;;;21.74;30.00;98234.28;4981251;28;1123;-76
2023/09/15 08:34:03;;;;;;;;;;;;;;;21.75;29.89;98230.22;4981275;28;1210;-75
2023/09/15 08:36:28;;;;;;;;;;;;;;;21.93;29.67;98234.69;4997220;28;1112;-76
2023/09/15 08:38:54;;;;;;;;;;;;;;;21.89;29.65;98237.59;4980917;28;1156;-77
2023/09/15 08:41:24;;;;;;;;;;;;;;;21.72;29.98;98236.78;4980679;28;1984;-76
2023/09/15 08:43:51;;;;;;;;;;;;;;;22.03;29.73;98230.78;4980577;28;962;-76
2023/09/15 08:46:16;;;;;;;;;;;;;;;22.00;29.58;98237.34;4961554;28;1081;-76
2023/09/15 08:48:42;;;;;;;;;;;;;;;22.03;29.68;98240.09;4977227;28;905;-76
2023/09/15 08:51:07;;;;;;;;;;;;;;;21.77;30.15;98227.75;4977393;28;1072;-76
2023/09/15 08:53:34;;;;;;;;;;;;;;;21.44;30.41;98243.88;4977471;28;881;-77
2023/09/15 08:55:59;;;;;;;;;;;;;;;21.58;30.43;98242.78;4977053;28;978;-76
2023/09/15 08:58:25;;;;;;;;;;;;;;;21.69;29.97;98236.84;4977159;28;984;-76
2023/09/15 09:00:51;;;;;;;;;;;;;;;21.76;30.03;98231.84;4979610;28;1902;-76
2023/09/15 09:03:17;;;;;;;;;;;;;;;21.70;30.03;98225.06;4996295;28;1078;-77
2023/09/15 09:05:43;;;;;;;;;;;;;;;22.00;29.43;98231.66;4996633;28;933;-76
2023/09/15 09:08:09;;;;;;;;;;;;;;;21.71;30.06;98240.03;4965446;28;933;-75
2023/09/15 09:10:34;;;;;;;;;;;;;;;21.93;29.84;98235.47;4961191;28;1003;-76
2023/09/15 09:13:00;;;;;;;;;;;;;;;21.93;29.66;98234.69;4985326;28;1126;-76
2023/09/15 09:15:25;;;;;;;;;;;;;;;21.81;30.01;98234.16;5000100;28;970;-76
2023/09/15 09:17:51;;;;;;;;;;;;;;;21.87;29.98;98228.75;5000057;28;978;-76
2023/09/15 09:20:24;;;;;;;;;;;;;;;21.74;30.09;98234.28;4982623;28;1243;-77
2023/09/15 09:22:49;;;;;;;;;;;;;;;21.78;30.07;98229.34;4986686;28;957;-76
2023/09/15 09:25:15;;;;;;;;;;;;;;;21.51;30.47;98226.75;5037077;28;1299;-76
2023/09/15 09:27:40;;;;;;;;;;;;;;;21.74;30.09;98230.66;5037422;28;940;-76
2023/09/15 09:30:06;;;;;;;;;;;;;;;22.02;29.63;98227.16;5036355;28;913;-76
2023/09/15 09:32:35;;;;;;;;;;;;;;;21.77;29.87;98222.09;5037268;28;878;-76
2023/09/15 09:35:01;;;;;;;;;;;;;;;21.96;29.73;98223.25;5020173;28;885;-76
2023/09/15 09:37:27;;;;;;;;;;;;;;;21.85;29.70;98217.03;5036011;28;868;-76
2023/09/15 09:39:53;;;;;;;;;;;;;;;22.05;29.29;98225.47;5035943;28;936;-76
2023/09/15 09:42:20;;;;;;;;;;;;;;;21.68;30.27;98230.41;5036432;28;1980;-76
2023/09/15 09:44:45;;;;;;;;;;;;;;;21.95;29.82;98233.00;5036227;28;1529;-76
2023/09/15 09:47:11;;;;;;;;;;;;;;;21.78;30.02;98218.03;5036495;28;930;-76
2023/09/15 09:49:37;;;;;;;;;;;;;;;21.70;29.95;98225.06;5037369;28;858;-77
2023/09/15 09:52:03;;;;;;;;;;;;;;;21.53;30.43;98214.97;5036533;28;935;-77
2023/09/15 09:54:31;;;;;;;;;;;;;;;21.64;30.48;98224.00;5019728;28;1233;-77
2023/09/15 09:56:56;;;;;;;;;;;;;;;21.85;30.05;98226.34;5020105;28;872;-77
2023/09/15 09:59:22;;;;;;;;;;;;;;;21.75;30.11;98227.38;5035928;28;862;-77
2023/09/15 10:01:48;;;;;;;;;;;;;;;21.63;30.31;98225.25;5034798;28;1984;-76
2023/09/15 10:04:13;;;;;;;;;;;;;;;21.85;29.89;98222.72;5001863;28;1337;-77
2023/09/15 10:06:39;;;;;;;;;;;;;;;21.64;30.09;98218.34;5018355;28;1271;-77
2023/09/15 10:09:08;;;;;;;;;;;;;;;21.72;30.03;98225.44;4978919;28;1243;-77
2023/09/15 10:11:34;;;;;;;;;;;;;;;22.04;29.49;98224.66;4975608;28;1267;-77
2023/09/15 10:14:00;;;;;;;;;;;;;;;21.35;29.70;98132.47;4959852;28;1489;-76
2023/09/15 10:16:25;;;;;;;;;;;;;;;21.88;29.90;98236.00;4982668;28;1652;-77
2023/09/15 10:18:51;;;;;;;;;;;;;;;21.80;29.95;98226.88;4995472;28;1253;-76
2023/09/15 10:21:16;;;;;;;;;;;;;;;21.89;29.69;98228.31;4956138;28;1988;-77
2023/09/15 10:23:42;;;;;;;;;;;;;;;21.91;30.04;98226.59;4956446;28;926;-77
2023/09/15 10:26:09;;;;;;;;;;;;;;;21.72;30.17;98228.28;4956625;28;945;-77
2023/09/15 10:28:35;;;;;;;;;;;;;;;21.81;30.04;98228.47;4956311;28;1026;-77
2023/09/15 10:31:00;;;;;;;;;;;;;;;21.66;30.38;98235.72;4936617;29;1234;-76
2023/09/15 10:33:26;;;;;;;;;;;;;;;21.84;30.01;98226.78;4936913;29;895;-76
2023/09/15 10:35:52;;;;;;;;;;;;;;;21.56;30.46;98225.44;4936681;29;936;-76
2023/09/15 10:38:27;;;;;;;;;;;;;;;21.70;30.02;98227.13;4936877;29;901;-76
2023/09/15 10:40:54;;;;;;;;;;;;;;;21.93;29.67;98221.31;4968793;28;1988;-77
2023/09/15 10:43:19;;;;;;;;;;;;;;;21.58;30.54;98220.13;4956022;29;959;-76
2023/09/15 10:45:58;;;;;;;;;;;;;;;21.76;30.03;98209.19;4956034;29;982;-76
2023/09/15 10:48:35;;;;;;;;;;;;;;;21.66;30.39;98215.91;4956115;29;1423;-76
2023/09/15 10:51:07;;;;;;;;;;;;;;;21.66;30.45;98213.06;4955883;29;1427;-77
2023/09/15 10:53:48;;;;;;;;;;;;;;;21.82;30.13;98218.75;4952316;29;1307;-76
2023/09/15 10:56:14;;;;;;;;;;;;;;;21.69;30.32;98214.19;4936615;29;932;-76
2023/09/15 10:58:40;;;;;;;;;;;;;;;21.63;30.19;98211.09;4946746;29;1364;-77
2023/09/15 11:01:05;;;;;;;;;;;;;;;21.89;29.97;98205.63;4954684;29;1918;-76
2023/09/15 11:03:31;;;;;;;;;;;;;;;21.68;30.26;98204.13;4972040;28;1088;-76
2023/09/15 11:05:57;;;;;;;;;;;;;;;21.75;30.22;98199.06;4939629;29;1219;-76
2023/09/15 11:08:22;;;;;;;;;;;;;;;21.79;30.23;98199.78;4955235;29;928;-76
2023/09/15 11:10:56;;;;;;;;;;;;;;;21.49;29.79;98132.16;4955571;28;851;-76
2023/09/15 11:13:21;;;;;;;;;;;;;;;21.85;29.79;98198.00;4945574;28;1091;-77
2023/09/15 11:15:48;;;;;;;;;;;;;;;21.92;30.01;98193.44;5013810;28;871;-78
2023/09/15 11:18:14;;;;;;;;;;;;;;;22.13;29.46;98198.59;5013410;28;970;-75
2023/09/15 11:20:40;;;;;;;;;;;;;;;22.19;29.51;98193.97;4997463;28;1981;-77
2023/09/15 11:23:06;;;;;;;;;;;;;;;22.01;29.88;98185.09;4997227;28;913;-76
2023/09/15 11:25:32;;;;;;;;;;;;;;;22.02;30.02;98184.66;5030940;28;964;-77
2023/09/15 11:28:00;;;;;;;;;;;;;;;21.83;30.18;98180.66;5035001;28;958;-77
2023/09/15 11:30:26;;;;;;;;;;;;;;;21.54;30.79;98174.09;5053108;28;966;-77
2023/09/15 11:32:53;;;;;;;;;;;;;;;21.77;30.51;98176.00;5037089;28;946;-76
2023/09/15 11:35:20;;;;;;;;;;;;;;;21.77;30.48;98176.00;5053531;28;1088;-77
2023/09/15 11:37:45;;;;;;;;;;;;;;;21.83;30.37;98180.66;5037155;28;994;-77
2023/09/15 11:40:23;;;;;;;;;;;;;;;22.04;30.11;98178.53;5036682;28;941;-77
2023/09/15 11:42:52;;;;;;;;;;;;;;;21.98;30.06;98180.31;5036015;28;1987;-76
2023/09/15 11:45:18;;;;;;;;;;;;;;;21.82;30.46;98179.09;5052977;28;996;-77
2023/09/15 11:47:43;;;;;;;;;;;;;;;22.09;29.90;98180.84;5036849;28;961;-76
2023/09/15 11:50:09;;;;;;;;;;;;;;;21.56;30.73;98180.13;5036639;28;960;-76
2023/09/15 11:52:36;;;;;;;;;;;;;;;21.99;30.34;98181.91;5036599;28;971;-76
2023/09/15 11:55:01;;;;;;;;;;;;;;;22.11;29.87;98181.22;5036567;28;960;-77
2023/09/15 11:57:27;;;;;;;;;;;;;;;21.99;30.07;98193.25;5053144;28;946;-77
2023/09/15 11:59:52;;;;;;;;;;;;;;;22.27;29.54;98191.72;5036456;28;925;-77
2023/09/15 12:02:18;;;;;;;;;;;;;;;21.93;30.36;98178.03;5034134;28;1918;-77
2023/09/15 12:04:43;;;;;;;;;;;;;;;22.18;30.05;98178.22;5034477;28;966;-77
2023/09/15 12:07:09;;;;;;;;;;;;;;;22.03;30.21;98174.13;5034702;28;1004;-76
2023/09/15 12:09:34;;;;;;;;;;;;;;;21.91;30.43;98174.81;5035933;28;925;-77
2023/09/15 12:12:00;;;;;;;;;;;;;;;22.26;29.90;98179.59;5034119;28;1126;-76
2023/09/15 12:14:25;;;;;;;;;;;;;;;22.05;30.26;98163.13;5034214;28;915;-77
2023/09/15 12:16:51;;;;;;;;;;;;;;;21.96;30.17;98160.13;5034308;28;934;-76
2023/09/15 12:19:17;;;;;;;;;;;;;;;22.05;30.12;98157.47;5012975;28;1222;-76
2023/09/15 12:21:52;;;;;;;;;;;;;;;22.03;30.23;98157.91;5013060;28;1967;-77
2023/09/15 12:24:20;;;;;;;;;;;;;;;21.69;30.64;98154.72;4993210;28;999;-76
2023/09/15 12:26:45;;;;;;;;;;;;;;;21.94;30.58;98145.63;4993861;28;1122;-76
2023/09/15 12:29:11;;;;;;;;;;;;;;;22.07;30.04;98143.63;4993397;28;1097;-76
2023/09/15 12:31:41;;;;;;;;;;;;;;;21.92;30.56;98148.09;4993642;28;1073;-78
2023/09/15 12:34:06;;;;;;;;;;;;;;;21.89;30.35;98148.97;4993375;28;1227;-77
2023/09/15 12:36:32;;;;;;;;;;;;;;;21.87;30.43;98142.97;4993319;28;923;-77
2023/09/15 12:38:57;;;;;;;;;;;;;;;22.04;30.25;98151.00;4993303;28;945;-77
2023/09/15 12:41:23;;;;;;;;;;;;;;;22.14;30.01;98143.50;5004241;28;1985;-76
2023/09/15 12:43:49;;;;;;;;;;;;;;;22.08;30.11;98134.72;4996801;28;992;-77
2023/09/15 12:46:14;;;;;;;;;;;;;;;22.09;29.96;98136.28;4980399;28;955;-76
2023/09/15 12:48:40;;;;;;;;;;;;;;;22.28;29.68;98137.44;4996724;28;1335;-77
2023/09/15 12:51:06;;;;;;;;;;;;;;;21.89;30.41;98143.31;5029863;28;993;-77
2023/09/15 12:53:31;;;;;;;;;;;;;;;21.87;30.52;98140.94;4999560;28;955;-77
2023/09/15 12:56:00;;;;;;;;;;;;;;;22.01;30.42;98139.75;5004655;28;978;-77